TimeCST,TemperatureF,Dew PointF,Humidity,Sea Level PressureIn,VisibilityMPH,Wind Direction,Wind SpeedMPH,Gust SpeedMPH,PrecipitationIn,Events,Conditions,WindDirDegrees,DateUTC
12:52 AM,32.0,27.0,82,29.81,10.0,Calm,Calm,-,N/A,,Clear,0,2013-01-27 06:52:00
1:52 AM,30.9,27.0,85,29.78,10.0,Calm,Calm,-,N/A,,Clear,0,2013-01-27 07:52:00
2:52 AM,32.0,27.0,82,29.76,10.0,Calm,Calm,-,N/A,,Clear,0,2013-01-27 08:52:00
3:52 AM,32.0,26.1,79,29.74,10.0,Calm,Calm,-,N/A,,Partly Cloudy,0,2013-01-27 09:52:00
4:52 AM,32.0,27.0,82,29.75,10.0,Calm,Calm,-,N/A,,Overcast,0,2013-01-27 10:52:00
5:52 AM,33.1,27.0,78,29.73,10.0,Calm,Calm,-,N/A,,Overcast,0,2013-01-27 11:52:00
6:52 AM,34.0,28.0,79,29.74,10.0,NW,3.5,-,N/A,,Overcast,320,2013-01-27 12:52:00
7:52 AM,34.0,28.9,82,29.75,10.0,Calm,Calm,-,N/A,,Overcast,0,2013-01-27 13:52:00
8:52 AM,35.1,30.9,85,29.76,10.0,Calm,Calm,-,N/A,,Overcast,0,2013-01-27 14:52:00
9:52 AM,39.0,33.1,79,29.75,10.0,SW,3.5,-,N/A,,Overcast,230,2013-01-27 15:52:00
10:52 AM,42.1,34.0,73,29.75,10.0,Calm,Calm,-,N/A,,Overcast,0,2013-01-27 16:52:00
11:52 AM,46.4,35.6,66,29.68,10.0,West,4.6,-,N/A,,Overcast,260,2013-01-27 17:52:00
12:52 PM,48.9,37.0,64,29.70,10.0,WSW,8.1,-,N/A,,Overcast,250,2013-01-27 18:52:00
1:52 PM,52.0,37.9,59,29.68,10.0,WNW,4.6,-,N/A,,Overcast,290,2013-01-27 19:52:00
2:52 PM,55.9,39.9,55,29.67,10.0,West,6.9,-,N/A,,Overcast,260,2013-01-27 20:52:00
3:52 PM,57.0,39.0,51,29.67,10.0,WSW,10.4,-,N/A,,Clear,240,2013-01-27 21:52:00
4:52 PM,57.0,39.0,51,29.68,10.0,West,6.9,-,N/A,,Partly Cloudy,270,2013-01-27 22:52:00
5:52 PM,46.0,37.0,71,29.70,10.0,West,6.9,-,N/A,,Partly Cloudy,280,2013-01-27 23:52:00
6:52 PM,46.9,39.0,74,29.72,10.0,WNW,8.1,-,N/A,,Overcast,290,2013-01-28 00:52:00
7:52 PM,42.1,37.9,85,29.74,10.0,West,3.5,-,N/A,,Scattered Clouds,280,2013-01-28 01:52:00
8:52 PM,37.0,34.0,89,29.76,10.0,NNW,3.5,-,N/A,,Clear,340,2013-01-28 02:52:00
9:52 PM,32.0,30.0,92,29.78,10.0,WNW,4.6,-,N/A,,Clear,300,2013-01-28 03:52:00
10:52 PM,30.9,28.0,89,29.79,10.0,NW,8.1,-,N/A,,Clear,310,2013-01-28 04:52:00
11:52 PM,30.0,27.0,88,29.79,10.0,WNW,5.8,-,N/A,,Clear,300,2013-01-28 05:52:00